Saint-Prosper-De-Dorchester, Canada
Current Conditions -  °F | °C
As of 10:00 AM on Thursday 30 Oct 2014 (Local Time) from CYQB Reporting Station
Broken Clouds Broken Clouds  
Wind Chill:   Ceiling: 2900
Heat Index:   Visibility: 30mi
Dew Point:   Wind: 12mph
Humidity: 76%   Direction: 240°WSW
Pressure: 29.9"   Gusts: NA
Location:  46.2°N, 70.48°W
Report Text: CYQB 301400Z 24010KT 30SM BKN029 BKN120 BKN220 06/02 A2990 RMK SC6AC1CI1 AC TR SLP127
Loading
Personal Weather Stations






























Interactive Weather Map
Tropical Storm Tracking
New forecast layout! Learn more

10-Day Weather Forecast

Advertisements
Track Severe Weather on mobile